Time;durP1;ratioP1;P1;durP2;ratioP2;P2;SDS_P1;SDS_P2;PMS_P1;PMS_P2;Temp;Humidity;BMP_temperature;BMP_pressure;BME280_temperature;BME280_humidity;BME280_pressure;Samples;Min_cycle;Max_cycle;Signal;HPM_P1;HPM_P2
2024/02/15 00:01:09;;;;;;;23.85;4.35;;;;;;;;;;5032141;28;20091;-72
2024/02/15 00:03:55;;;;;;;11.93;3.95;;;;;;;;;;5032503;28;20390;-71
2024/02/15 00:06:40;;;;;;;20.70;4.30;;;;;;;;;;5031806;28;20078;-71
2024/02/15 00:09:26;;;;;;;17.42;5.43;;;;;;;;;;5052496;28;20036;-72
2024/02/15 00:12:12;;;;;;;13.85;4.43;;;;;;;;;;5046282;28;20030;-72
2024/02/15 00:14:58;;;;;;;24.55;4.70;;;;;;;;;;5032705;28;20021;-71
2024/02/15 00:17:44;;;;;;;22.15;4.80;;;;;;;;;;5020622;28;20035;-71
2024/02/15 00:20:29;;;;;;;19.95;4.32;;;;;;;;;;5032773;28;20029;-71
2024/02/15 00:23:16;;;;;;;18.95;3.10;;;;;;;;;;5035978;28;20150;-71
2024/02/15 00:26:01;;;;;;;14.60;3.17;;;;;;;;;;5018214;28;20029;-71
2024/02/15 00:28:49;;;;;;;31.38;5.07;;;;;;;;;;5033145;28;20037;-71
2024/02/15 00:31:35;;;;;;;19.23;3.03;;;;;;;;;;5048161;28;20028;-71
2024/02/15 00:34:26;;;;;;;17.02;3.67;;;;;;;;;;5052360;28;20398;-71
2024/02/15 00:37:12;;;;;;;15.88;4.20;;;;;;;;;;5051930;28;20557;-71
2024/02/15 00:39:57;;;;;;;11.73;3.58;;;;;;;;;;5040766;28;20036;-71
2024/02/15 00:42:43;;;;;;;16.35;4.18;;;;;;;;;;5051492;28;20029;-72
2024/02/15 00:45:31;;;;;;;13.68;3.85;;;;;;;;;;5051664;28;20028;-71
2024/02/15 00:48:17;;;;;;;17.17;3.85;;;;;;;;;;5052371;28;20111;-71
2024/02/15 00:51:03;;;;;;;24.38;3.97;;;;;;;;;;5048722;28;20088;-72
2024/02/15 00:53:49;;;;;;;16.95;4.18;;;;;;;;;;5052593;28;20024;-71
2024/02/15 00:56:37;;;;;;;46.40;4.55;;;;;;;;;;5036754;28;20048;-71
2024/02/15 00:59:22;;;;;;;27.98;5.30;;;;;;;;;;5038455;28;20029;-71
2024/02/15 01:02:08;;;;;;;15.65;4.43;;;;;;;;;;5049558;28;20082;-70
2024/02/15 01:04:56;;;;;;;20.10;4.65;;;;;;;;;;5050341;28;20025;-71
2024/02/15 01:07:42;;;;;;;22.52;4.80;;;;;;;;;;5052269;28;20445;-71
2024/02/15 01:10:28;;;;;;;21.40;4.95;;;;;;;;;;5033176;28;20029;-70
2024/02/15 01:13:13;;;;;;;25.88;4.93;;;;;;;;;;5019645;28;20395;-71
2024/02/15 01:16:02;;;;;;;13.38;3.83;;;;;;;;;;5056095;28;20025;-71
2024/02/15 01:18:48;;;;;;;9.95;4.43;;;;;;;;;;5055821;28;20024;-71
2024/02/15 01:21:34;;;;;;;16.67;5.13;;;;;;;;;;5042266;28;20479;-72
2024/02/15 01:24:20;;;;;;;16.15;4.32;;;;;;;;;;5041495;28;20055;-71
2024/02/15 01:27:07;;;;;;;10.02;4.43;;;;;;;;;;5055348;28;20024;-71
2024/02/15 01:29:53;;;;;;;13.38;4.40;;;;;;;;;;5042056;28;20025;-72
2024/02/15 01:32:41;;;;;;;16.10;4.70;;;;;;;;;;5041995;28;20027;-71
2024/02/15 01:35:27;;;;;;;13.23;3.92;;;;;;;;;;5047017;28;20083;-71
2024/02/15 01:38:13;;;;;;;17.02;5.63;;;;;;;;;;5040514;28;20486;-71
2024/02/15 01:40:58;;;;;;;9.10;4.20;;;;;;;;;;5053296;28;20441;-71
2024/02/15 01:43:47;;;;;;;10.85;3.70;;;;;;;;;;5008933;28;20021;-71
2024/02/15 01:46:33;;;;;;;8.73;3.55;;;;;;;;;;5037032;28;20490;-71
2024/02/15 01:49:19;;;;;;;10.38;3.33;;;;;;;;;;5038562;28;20037;-70
2024/02/15 01:52:08;;;;;;;8.15;3.20;;;;;;;;;;5039569;28;20563;-71
2024/02/15 01:54:54;;;;;;;6.63;2.72;;;;;;;;;;5031137;28;20025;-71
2024/02/15 01:57:43;;;;;;;6.38;2.70;;;;;;;;;;5021071;28;20034;-71
2024/02/15 02:00:30;;;;;;;7.72;2.70;;;;;;;;;;5028283;28;20079;-71
2024/02/15 02:03:16;;;;;;;8.48;3.08;;;;;;;;;;5051726;28;20021;-70
2024/02/15 02:06:02;;;;;;;7.30;2.75;;;;;;;;;;5035129;28;20033;-71
2024/02/15 02:08:49;;;;;;;7.40;3.20;;;;;;;;;;5035428;28;20491;-71
2024/02/15 02:11:35;;;;;;;5.75;2.63;;;;;;;;;;5037418;28;20505;-70
2024/02/15 02:14:22;;;;;;;6.28;3.22;;;;;;;;;;5053039;28;20025;-71
2024/02/15 02:17:14;;;;;;;7.35;3.60;;;;;;;;;;5040858;28;20452;-71
2024/02/15 02:19:59;;;;;;;14.98;6.15;;;;;;;;;;5055936;28;20498;-71
2024/02/15 02:22:48;;;;;;;21.92;5.35;;;;;;;;;;5041918;28;20079;-71
2024/02/15 02:25:36;;;;;;;25.90;6.47;;;;;;;;;;5022804;28;20044;-70
2024/02/15 02:28:22;;;;;;;39.05;7.30;;;;;;;;;;5020134;28;20032;-71
2024/02/15 02:31:11;;;;;;;16.98;4.18;;;;;;;;;;5047648;28;20031;-72
2024/02/15 02:33:58;;;;;;;15.15;4.38;;;;;;;;;;5055002;28;20055;-71
2024/02/15 02:36:44;;;;;;;14.90;3.88;;;;;;;;;;5053313;28;20052;-70
2024/02/15 02:39:31;;;;;;;12.52;3.92;;;;;;;;;;5029601;28;20021;-71
2024/02/15 02:42:17;;;;;;;15.30;4.38;;;;;;;;;;5024167;28;20033;-71
2024/02/15 02:45:02;;;;;;;11.15;4.10;;;;;;;;;;5054372;28;20087;-71
2024/02/15 02:47:51;;;;;;;19.33;4.13;;;;;;;;;;5055197;28;20385;-71
2024/02/15 02:50:37;;;;;;;12.27;4.07;;;;;;;;;;5039898;28;20025;-71
2024/02/15 02:53:24;;;;;;;7.10;3.30;;;;;;;;;;5054009;28;20092;-71
2024/02/15 02:56:09;;;;;;;11.05;3.50;;;;;;;;;;5040269;28;20122;-71
2024/02/15 02:58:57;;;;;;;11.10;3.55;;;;;;;;;;5054874;28;20063;-71
2024/02/15 03:01:43;;;;;;;14.63;4.50;;;;;;;;;;5054328;28;20498;-71
2024/02/15 03:04:29;;;;;;;10.55;3.97;;;;;;;;;;5054715;28;20087;-71
2024/02/15 03:07:17;;;;;;;12.57;4.43;;;;;;;;;;5054780;28;20087;-71
2024/02/15 03:10:09;;;;;;;10.52;4.10;;;;;;;;;;5054228;28;20033;-70
2024/02/15 03:12:55;;;;;;;10.88;3.95;;;;;;;;;;5054221;28;20100;-71
2024/02/15 03:15:41;;;;;;;13.65;4.07;;;;;;;;;;5053271;28;20029;-71
2024/02/15 03:18:27;;;;;;;16.40;4.70;;;;;;;;;;5054541;28;20104;-71
2024/02/15 03:21:13;;;;;;;16.85;4.80;;;;;;;;;;5053350;28;20047;-71
2024/02/15 03:23:59;;;;;;;18.85;4.97;;;;;;;;;;5054017;28;20098;-71
2024/02/15 03:26:45;;;;;;;12.38;4.07;;;;;;;;;;5054244;28;20021;-71
2024/02/15 03:29:30;;;;;;;13.15;4.45;;;;;;;;;;5053652;28;20448;-71
2024/02/15 03:32:16;;;;;;;19.58;5.88;;;;;;;;;;5053553;28;20017;-71
2024/02/15 03:35:02;;;;;;;17.90;5.70;;;;;;;;;;5053365;28;20482;-71
2024/02/15 03:37:51;;;;;;;22.42;6.68;;;;;;;;;;5040000;28;20039;-71
2024/02/15 03:40:40;;;;;;;26.70;6.85;;;;;;;;;;5053582;28;20032;-71
2024/02/15 03:43:26;;;;;;;29.15;7.57;;;;;;;;;;5054734;28;20017;-71
2024/02/15 03:46:13;;;;;;;23.88;6.38;;;;;;;;;;5053978;28;20514;-71
2024/02/15 03:48:58;;;;;;;25.67;6.80;;;;;;;;;;5053634;28;20032;-71
2024/02/15 03:51:45;;;;;;;31.65;8.25;;;;;;;;;;5053652;28;20025;-71
2024/02/15 03:54:31;;;;;;;31.75;7.15;;;;;;;;;;5053880;28;20395;-71
2024/02/15 03:57:17;;;;;;;26.20;6.28;;;;;;;;;;5052850;28;20162;-71
2024/02/15 04:00:04;;;;;;;19.25;6.13;;;;;;;;;;5053528;28;20452;-71
2024/02/15 04:02:49;;;;;;;21.75;5.95;;;;;;;;;;5053555;28;20493;-71
2024/02/15 04:05:35;;;;;;;20.23;6.35;;;;;;;;;;5053307;28;20024;-72
2024/02/15 04:08:21;;;;;;;25.17;6.53;;;;;;;;;;5053054;28;20478;-71
2024/02/15 04:11:07;;;;;;;20.20;6.32;;;;;;;;;;5053907;28;20029;-71
2024/02/15 04:13:52;;;;;;;31.77;8.63;;;;;;;;;;5051503;28;20025;-71
2024/02/15 04:16:38;;;;;;;30.42;7.20;;;;;;;;;;5038065;28;20089;-70
2024/02/15 04:19:24;;;;;;;39.50;8.63;;;;;;;;;;5036160;28;20116;-70
2024/02/15 04:22:10;;;;;;;27.73;8.25;;;;;;;;;;5034439;28;20414;-71
2024/02/15 04:25:16;;;;;;;31.52;8.43;;;;;;;;;;5049885;28;20486;-71
2024/02/15 04:28:03;;;;;;;23.90;7.53;;;;;;;;;;5039814;28;20041;-70
2024/02/15 04:30:49;;;;;;;41.40;8.25;;;;;;;;;;5051621;28;20036;-71
2024/02/15 04:33:35;;;;;;;41.78;8.60;;;;;;;;;;5047973;28;20482;-71
2024/02/15 04:36:24;;;;;;;45.72;8.55;;;;;;;;;;5052105;28;20094;-70
2024/02/15 04:39:12;;;;;;;27.48;6.90;;;;;;;;;;5051723;28;20479;-71
2024/02/15 04:42:00;;;;;;;34.15;8.05;;;;;;;;;;5039221;28;20499;-71
2024/02/15 04:44:45;;;;;;;31.83;7.40;;;;;;;;;;5044437;28;20052;-71
2024/02/15 04:47:31;;;;;;;56.55;9.57;;;;;;;;;;5051293;28;20021;-71
2024/02/15 04:50:18;;;;;;;30.13;7.20;;;;;;;;;;5046226;28;20114;-71
2024/02/15 04:53:05;;;;;;;44.63;7.93;;;;;;;;;;5039018;28;20082;-71
2024/02/15 04:55:50;;;;;;;32.15;10.13;;;;;;;;;;5038506;28;20032;-71
2024/02/15 04:58:37;;;;;;;40.58;9.57;;;;;;;;;;5037609;28;20021;-71
2024/02/15 05:01:23;;;;;;;64.57;10.35;;;;;;;;;;5035733;28;20563;-70
2024/02/15 05:04:18;;;;;;;45.13;8.88;;;;;;;;;;5018358;28;20036;-72
2024/02/15 05:07:04;;;;;;;39.28;8.10;;;;;;;;;;5031627;28;20025;-71
2024/02/15 05:09:52;;;;;;;38.70;9.73;;;;;;;;;;5046592;28;20029;-71
2024/02/15 05:12:42;;;;;;;37.88;8.88;;;;;;;;;;5053242;28;20021;-71
2024/02/15 05:15:28;;;;;;;48.28;9.70;;;;;;;;;;5051066;28;20025;-71
2024/02/15 05:18:13;;;;;;;40.15;8.23;;;;;;;;;;5052299;28;20029;-72
2024/02/15 05:21:00;;;;;;;39.13;8.98;;;;;;;;;;5036953;28;20063;-71
2024/02/15 05:23:46;;;;;;;45.90;8.45;;;;;;;;;;5053472;28;20028;-71
2024/02/15 05:26:31;;;;;;;48.80;8.10;;;;;;;;;;5053065;28;20024;-71
2024/02/15 05:29:17;;;;;;;73.20;10.20;;;;;;;;;;5024010;28;20021;-71
2024/02/15 05:32:03;;;;;;;45.60;8.00;;;;;;;;;;5051175;28;20024;-71
2024/02/15 05:34:48;;;;;;;30.20;7.70;;;;;;;;;;5052380;28;20031;-71
2024/02/15 05:37:34;;;;;;;39.38;9.23;;;;;;;;;;5052450;28;20085;-71
2024/02/15 05:40:20;;;;;;;36.90;8.73;;;;;;;;;;5036886;28;20028;-71
2024/02/15 05:43:06;;;;;;;59.60;8.82;;;;;;;;;;5038879;28;20060;-71
2024/02/15 05:45:52;;;;;;;33.63;9.02;;;;;;;;;;5052688;28;20532;-71
2024/02/15 05:48:39;;;;;;;30.27;7.80;;;;;;;;;;5052109;28;20033;-71
2024/02/15 05:51:24;;;;;;;34.55;8.68;;;;;;;;;;5037892;28;20059;-71
2024/02/15 05:54:10;;;;;;;54.60;9.23;;;;;;;;;;5037332;28;20041;-72
2024/02/15 05:56:58;;;;;;;45.80;10.48;;;;;;;;;;5052514;28;20088;-71
2024/02/15 05:59:44;;;;;;;39.60;9.93;;;;;;;;;;5038876;28;20025;-71
2024/02/15 06:02:30;;;;;;;42.05;10.23;;;;;;;;;;5056011;28;20390;-74
2024/02/15 06:05:16;;;;;;;36.40;8.60;;;;;;;;;;5055974;28;20379;-74
2024/02/15 06:08:02;;;;;;;59.58;9.68;;;;;;;;;;5041022;28;20029;-74
2024/02/15 06:10:48;;;;;;;54.67;9.95;;;;;;;;;;5055512;28;20107;-74
2024/02/15 06:13:34;;;;;;;35.42;9.52;;;;;;;;;;5055306;28;20474;-74
2024/02/15 06:16:19;;;;;;;40.53;9.27;;;;;;;;;;5041267;28;20045;-74
2024/02/15 06:19:05;;;;;;;59.63;9.00;;;;;;;;;;5054836;28;20025;-74
2024/02/15 06:21:50;;;;;;;59.75;11.88;;;;;;;;;;5040151;28;20088;-74
2024/02/15 06:24:36;;;;;;;73.50;11.52;;;;;;;;;;5056139;28;20035;-74
2024/02/15 06:27:24;;;;;;;53.25;10.88;;;;;;;;;;5055846;28;20025;-74
2024/02/15 06:39:40;;;;;;;48.92;10.52;;;;;;;;;;5055072;28;20029;-74
2024/02/15 06:42:26;;;;;;;45.95;9.57;;;;;;;;;;5054994;28;20158;-73
2024/02/15 06:45:13;;;;;;;51.70;11.18;;;;;;;;;;5052717;28;20076;-74
2024/02/15 06:47:58;;;;;;;63.80;12.88;;;;;;;;;;5032634;28;20082;-73
2024/02/15 06:50:48;;;;;;;57.55;10.95;;;;;;;;;;5039095;28;20490;-73
2024/02/15 06:53:33;;;;;;;38.97;9.13;;;;;;;;;;5037485;28;20026;-74
2024/02/15 06:56:20;;;;;;;53.00;12.35;;;;;;;;;;5054758;28;20111;-74
2024/02/15 06:59:07;;;;;;;41.17;9.40;;;;;;;;;;5054979;28;20021;-72
2024/02/15 07:01:53;;;;;;;48.95;11.43;;;;;;;;;;5036726;28;20033;-74
2024/02/15 07:04:38;;;;;;;44.25;11.23;;;;;;;;;;5020818;28;20045;-73
2024/02/15 07:07:24;;;;;;;69.50;11.05;;;;;;;;;;5035035;28;20057;-74
2024/02/15 07:10:10;;;;;;;45.70;10.43;;;;;;;;;;5035087;28;20018;-73
2024/02/15 07:12:56;;;;;;;50.40;11.93;;;;;;;;;;5019212;28;20067;-73
2024/02/15 07:15:42;;;;;;;42.80;10.32;;;;;;;;;;5041397;28;20521;-73
2024/02/15 07:18:27;;;;;;;41.83;9.18;;;;;;;;;;5054823;28;20051;-74
2024/02/15 07:21:16;;;;;;;42.35;9.32;;;;;;;;;;5038646;28;20543;-74
2024/02/15 07:24:02;;;;;;;40.65;8.75;;;;;;;;;;5053116;28;20532;-73
2024/02/15 07:26:47;;;;;;;44.83;9.68;;;;;;;;;;5053980;28;20025;-74
2024/02/15 07:29:34;;;;;;;39.47;10.75;;;;;;;;;;5053592;28;20479;-73
2024/02/15 07:32:20;;;;;;;32.60;9.25;;;;;;;;;;5032982;23;20046;-74
2024/02/15 07:35:07;;;;;;;38.47;9.13;;;;;;;;;;5016957;28;20029;-74
2024/02/15 07:37:58;;;;;;;42.05;9.15;;;;;;;;;;5014102;28;20410;-74
2024/02/15 07:40:43;;;;;;;38.50;10.98;;;;;;;;;;5014250;28;20506;-73
2024/02/15 07:43:29;;;;;;;37.42;8.95;;;;;;;;;;5013600;28;20034;-74
2024/02/15 07:46:16;;;;;;;33.50;9.50;;;;;;;;;;5019980;28;20025;-74
2024/02/15 07:49:01;;;;;;;32.53;9.25;;;;;;;;;;5034793;28;20402;-73
2024/02/15 07:51:52;;;;;;;31.90;9.13;;;;;;;;;;5034113;28;20061;-74
2024/02/15 07:54:41;;;;;;;27.02;9.23;;;;;;;;;;5046122;28;20026;-73
2024/02/15 07:57:29;;;;;;;31.58;9.45;;;;;;;;;;5032686;28;20030;-70
2024/02/15 08:00:16;;;;;;;20.88;7.80;;;;;;;;;;5013598;28;20026;-70
2024/02/15 08:03:03;;;;;;;28.27;8.13;;;;;;;;;;5014866;28;20033;-72
2024/02/15 08:05:48;;;;;;;22.80;8.60;;;;;;;;;;5029849;28;20018;-71
2024/02/15 08:08:35;;;;;;;21.08;7.05;;;;;;;;;;5047217;28;20029;-70
2024/02/15 08:11:20;;;;;;;23.27;8.30;;;;;;;;;;5025548;28;20033;-70
2024/02/15 08:14:09;;;;;;;24.38;8.13;;;;;;;;;;5026378;28;20026;-70
2024/02/15 08:16:55;;;;;;;19.95;8.05;;;;;;;;;;5031578;28;20048;-71
2024/02/15 08:19:46;;;;;;;28.65;8.15;;;;;;;;;;5033678;28;20022;-70
2024/02/15 08:22:33;;;;;;;19.65;6.38;;;;;;;;;;5019585;28;20037;-71
2024/02/15 08:25:19;;;;;;;20.25;7.07;;;;;;;;;;5033681;28;20083;-73
2024/02/15 08:28:07;;;;;;;27.92;7.40;;;;;;;;;;5014666;28;20022;-73
2024/02/15 08:30:54;;;;;;;22.25;7.43;;;;;;;;;;5014350;28;20058;-73
2024/02/15 08:33:39;;;;;;;18.25;6.95;;;;;;;;;;5032805;28;20082;-73
2024/02/15 08:36:25;;;;;;;18.05;7.22;;;;;;;;;;5024743;28;20033;-72
2024/02/15 08:39:11;;;;;;;16.50;6.20;;;;;;;;;;5013570;28;20407;-73
2024/02/15 08:42:00;;;;;;;20.10;6.85;;;;;;;;;;5013934;28;20119;-73
2024/02/15 08:44:46;;;;;;;15.75;6.50;;;;;;;;;;5016958;28;20101;-73
2024/02/15 08:47:31;;;;;;;16.67;5.60;;;;;;;;;;5027752;28;20049;-73
2024/02/15 08:50:17;;;;;;;21.98;6.28;;;;;;;;;;5013938;28;20034;-72
2024/02/15 08:53:06;;;;;;;28.30;6.65;;;;;;;;;;5020340;28;20037;-72
2024/02/15 08:55:52;;;;;;;29.65;9.52;;;;;;;;;;5023984;28;20155;-73
2024/02/15 08:58:40;;;;;;;24.35;7.18;;;;;;;;;;5031295;28;20458;-73
2024/02/15 09:01:25;;;;;;;25.52;8.00;;;;;;;;;;5030484;28;20033;-72
2024/02/15 09:04:11;;;;;;;25.83;7.68;;;;;;;;;;5033369;28;20013;-73
2024/02/15 09:06:57;;;;;;;24.83;7.78;;;;;;;;;;5019303;28;20026;-73
2024/02/15 09:09:42;;;;;;;19.73;6.90;;;;;;;;;;5030924;28;20155;-73
2024/02/15 09:12:28;;;;;;;21.90;6.88;;;;;;;;;;5033024;28;20548;-73
2024/02/15 09:15:14;;;;;;;23.42;7.18;;;;;;;;;;5033212;28;20428;-72
2024/02/15 09:17:59;;;;;;;25.63;7.50;;;;;;;;;;5045486;28;20029;-72
2024/02/15 09:20:48;;;;;;;25.88;7.90;;;;;;;;;;5045676;28;20080;-72
2024/02/15 09:23:34;;;;;;;21.23;6.53;;;;;;;;;;5027618;28;20026;-73
2024/02/15 09:26:20;;;;;;;25.73;7.25;;;;;;;;;;5017157;28;20037;-73
2024/02/15 09:29:05;;;;;;;28.90;7.47;;;;;;;;;;5021778;28;20112;-72
2024/02/15 09:31:52;;;;;;;23.60;6.70;;;;;;;;;;5014586;28;20065;-73
2024/02/15 09:34:41;;;;;;;30.00;8.00;;;;;;;;;;5031498;28;20084;-73
2024/02/15 09:37:28;;;;;;;24.35;7.57;;;;;;;;;;5024934;28;20021;-72
2024/02/15 09:40:15;;;;;;;21.95;7.20;;;;;;;;;;5035775;28;20025;-72
2024/02/15 09:43:01;;;;;;;27.13;7.28;;;;;;;;;;5033470;28;20478;-72
2024/02/15 09:45:47;;;;;;;29.77;8.20;;;;;;;;;;5031553;28;20029;-72
2024/02/15 09:48:34;;;;;;;20.38;5.80;;;;;;;;;;5023212;28;20032;-73
2024/02/15 09:51:20;;;;;;;23.60;7.40;;;;;;;;;;5025737;28;20380;-73
2024/02/15 09:54:09;;;;;;;19.52;6.57;;;;;;;;;;5016783;28;20029;-73
2024/02/15 09:57:01;;;;;;;23.65;7.47;;;;;;;;;;5029584;28;20052;-73
2024/02/15 09:59:46;;;;;;;18.40;5.30;;;;;;;;;;5032656;28;20028;-73
2024/02/15 10:02:32;;;;;;;18.25;5.85;;;;;;;;;;5033538;28;20021;-72
2024/02/15 10:05:18;;;;;;;19.40;5.63;;;;;;;;;;5029434;28;20030;-73
2024/02/15 10:08:04;;;;;;;17.83;5.25;;;;;;;;;;5015980;28;20033;-73
2024/02/15 10:11:20;;;;;;;19.65;6.47;;;;;;;;;;5028559;28;20044;-73
2024/02/15 10:14:12;;;;;;;21.45;7.07;;;;;;;;;;5013392;28;20499;-73
2024/02/15 10:17:06;;;;;;;26.42;7.22;;;;;;;;;;5015769;28;20026;-73
2024/02/15 10:20:12;;;;;;;24.88;7.47;;;;;;;;;;5015330;28;20465;-73
2024/02/15 10:23:00;;;;;;;17.65;5.95;;;;;;;;;;5042557;23;20137;-71
2024/02/15 10:25:47;;;;;;;23.45;6.43;;;;;;;;;;5033729;28;20052;-70
2024/02/15 10:28:33;;;;;;;26.23;8.20;;;;;;;;;;5019621;28;20049;-70
2024/02/15 10:31:19;;;;;;;25.45;7.80;;;;;;;;;;5019999;28;20029;-70
2024/02/15 10:34:06;;;;;;;18.77;6.45;;;;;;;;;;5032652;28;20021;-70
2024/02/15 10:36:51;;;;;;;20.95;5.88;;;;;;;;;;5033941;28;20025;-70
2024/02/15 10:39:37;;;;;;;19.42;6.47;;;;;;;;;;5034194;28;20029;-70
2024/02/15 10:42:24;;;;;;;18.20;6.03;;;;;;;;;;4999751;28;20111;-70
2024/02/15 10:45:10;;;;;;;13.73;5.47;;;;;;;;;;5000192;28;20037;-72
2024/02/15 10:47:57;;;;;;;15.13;5.10;;;;;;;;;;5018661;28;20033;-71
2024/02/15 10:50:46;;;;;;;14.05;4.65;;;;;;;;;;5022790;28;20025;-70
2024/02/15 10:53:35;;;;;;;18.00;5.15;;;;;;;;;;5022559;28;20025;-70
2024/02/15 10:56:37;;;;;;;17.23;5.13;;;;;;;;;;5014171;28;20040;-70
2024/02/15 10:59:26;;;;;;;19.00;5.22;;;;;;;;;;5008457;28;20455;-70
2024/02/15 11:02:34;;;;;;;13.15;4.82;;;;;;;;;;5033222;28;20030;-72
2024/02/15 11:05:23;;;;;;;14.13;5.38;;;;;;;;;;5019130;28;20079;-72
2024/02/15 11:08:09;;;;;;;11.07;4.50;;;;;;;;;;5019279;28;20144;-72
2024/02/15 11:10:58;;;;;;;10.70;4.20;;;;;;;;;;5033320;28;20027;-72
2024/02/15 11:13:44;;;;;;;11.63;4.28;;;;;;;;;;5019241;28;20033;-73
2024/02/15 11:16:43;;;;;;;10.50;4.13;;;;;;;;;;5020317;28;20018;-72
2024/02/15 11:19:39;;;;;;;12.95;4.25;;;;;;;;;;5018747;28;20132;-72
2024/02/15 11:22:25;;;;;;;11.38;4.03;;;;;;;;;;5032573;28;20478;-72
2024/02/15 11:25:15;;;;;;;9.15;4.32;;;;;;;;;;5033746;28;20147;-72
2024/02/15 11:28:22;;;;;;;10.57;4.57;;;;;;;;;;5023160;28;20028;-72
2024/02/15 11:31:08;;;;;;;11.77;5.10;;;;;;;;;;5033094;28;20441;-72
2024/02/15 11:33:54;;;;;;;12.70;4.50;;;;;;;;;;5017697;28;20085;-72
2024/02/15 11:36:42;;;;;;;18.20;5.78;;;;;;;;;;5031841;28;20034;-72
2024/02/15 11:39:41;;;;;;;16.98;6.68;;;;;;;;;;5033253;28;20025;-72
2024/02/15 11:42:30;;;;;;;17.52;6.75;;;;;;;;;;5032025;28;20383;-72
2024/02/15 11:45:19;;;;;;;17.92;6.55;;;;;;;;;;5032361;28;20026;-72
2024/02/15 11:48:10;;;;;;;20.30;6.72;;;;;;;;;;5030287;28;20033;-72
2024/02/15 11:50:56;;;;;;;17.90;7.00;;;;;;;;;;5018647;28;20098;-72
2024/02/15 11:53:41;;;;;;;16.92;7.28;;;;;;;;;;5012399;28;20021;-73
2024/02/15 11:56:28;;;;;;;20.17;7.97;;;;;;;;;;5011240;28;20041;-70
2024/02/15 11:59:29;;;;;;;22.15;8.07;;;;;;;;;;4998717;28;20053;-70
2024/02/15 12:20:39;;;;;;;19.45;8.45;;;;;;;;;;5013140;28;20029;-70
2024/02/15 12:23:26;;;;;;;25.25;9.82;;;;;;;;;;5012009;28;20069;-70
2024/02/15 12:26:14;;;;;;;19.77;8.45;;;;;;;;;;4997645;28;20029;-69
2024/02/15 12:29:01;;;;;;;23.67;10.85;;;;;;;;;;5013555;28;20026;-70
2024/02/15 12:31:47;;;;;;;21.75;9.60;;;;;;;;;;4998611;28;20034;-70
2024/02/15 12:34:33;;;;;;;26.27;10.55;;;;;;;;;;5012361;28;20022;-70
2024/02/15 12:37:20;;;;;;;28.05;11.45;;;;;;;;;;5012210;28;20108;-70
2024/02/15 12:40:21;;;;;;;26.65;9.18;;;;;;;;;;5011208;28;20072;-69
2024/02/15 12:43:08;;;;;;;21.88;9.82;;;;;;;;;;5012858;28;20026;-70
2024/02/15 12:45:56;;;;;;;18.35;8.05;;;;;;;;;;5012297;28;20026;-70
2024/02/15 12:48:43;;;;;;;18.77;7.15;;;;;;;;;;5011121;28;20029;-70
2024/02/15 12:51:31;;;;;;;18.10;7.50;;;;;;;;;;4997403;28;20029;-70
2024/02/15 12:54:21;;;;;;;19.75;7.25;;;;;;;;;;4998747;28;20447;-70
2024/02/15 12:57:10;;;;;;;16.55;7.25;;;;;;;;;;4998998;28;20030;-70
2024/02/15 12:59:55;;;;;;;13.27;6.75;;;;;;;;;;5005693;28;20034;-70
2024/02/15 13:02:41;;;;;;;12.88;6.20;;;;;;;;;;5017053;28;20029;-70
2024/02/15 13:05:27;;;;;;;12.93;5.93;;;;;;;;;;5020555;28;20028;-70
2024/02/15 13:08:13;;;;;;;12.93;5.53;;;;;;;;;;5011501;28;20037;-70
2024/02/15 13:10:58;;;;;;;9.82;4.57;;;;;;;;;;5002530;28;20113;-70
2024/02/15 13:13:44;;;;;;;11.40;4.90;;;;;;;;;;5016972;28;20033;-70
2024/02/15 13:16:31;;;;;;;9.18;4.50;;;;;;;;;;5016064;28;20024;-69
2024/02/15 13:19:17;;;;;;;9.35;4.38;;;;;;;;;;5016910;28;20026;-70
2024/02/15 13:22:03;;;;;;;11.43;5.18;;;;;;;;;;5016928;28;20459;-70
2024/02/15 13:24:49;;;;;;;10.27;4.70;;;;;;;;;;5016865;28;20034;-70
2024/02/15 13:27:38;;;;;;;11.48;4.85;;;;;;;;;;5017025;28;20026;-70
2024/02/15 13:30:26;;;;;;;11.18;4.90;;;;;;;;;;5000669;28;20026;-70
2024/02/15 13:33:14;;;;;;;13.57;6.18;;;;;;;;;;5016513;28;20033;-70
2024/02/15 13:35:59;;;;;;;11.57;6.03;;;;;;;;;;5016310;28;20109;-70
2024/02/15 13:38:45;;;;;;;16.23;6.25;;;;;;;;;;5015449;28;20049;-69
2024/02/15 13:41:31;;;;;;;12.98;6.25;;;;;;;;;;5016492;28;20018;-70
2024/02/15 13:44:16;;;;;;;17.88;7.47;;;;;;;;;;5015940;28;20021;-70
2024/02/15 13:47:02;;;;;;;17.77;8.10;;;;;;;;;;5016519;28;20479;-70
2024/02/15 13:49:49;;;;;;;18.58;8.60;;;;;;;;;;5015524;28;20483;-69
2024/02/15 13:52:34;;;;;;;23.33;10.90;;;;;;;;;;5016283;28;20073;-70
2024/02/15 13:55:20;;;;;;;21.42;10.88;;;;;;;;;;5015787;28;20069;-70
2024/02/15 13:58:08;;;;;;;24.02;9.95;;;;;;;;;;5014955;28;20083;-69
2024/02/15 14:00:53;;;;;;;24.23;10.55;;;;;;;;;;5016400;28;20510;-69
2024/02/15 14:03:39;;;;;;;22.85;10.57;;;;;;;;;;5016160;28;20080;-69
2024/02/15 14:06:24;;;;;;;25.27;10.32;;;;;;;;;;5019687;28;20028;-70
2024/02/15 14:09:14;;;;;;;23.85;9.93;;;;;;;;;;5024270;28;20036;-69
2024/02/15 14:12:02;;;;;;;22.88;10.27;;;;;;;;;;5033923;28;20028;-69
2024/02/15 14:14:47;;;;;;;19.60;9.20;;;;;;;;;;5032619;28;20061;-69
2024/02/15 14:17:33;;;;;;;21.85;10.13;;;;;;;;;;5033593;28;20025;-69
2024/02/15 14:20:21;;;;;;;17.38;8.68;;;;;;;;;;5034085;28;20017;-69
2024/02/15 14:23:06;;;;;;;21.33;8.10;;;;;;;;;;5034256;28;20025;-69
2024/02/15 14:25:53;;;;;;;20.25;8.57;;;;;;;;;;5035715;28;20025;-69
2024/02/15 14:28:42;;;;;;;18.33;8.27;;;;;;;;;;5035466;28;20033;-69
2024/02/15 14:34:32;;;;;;;18.30;7.53;;;;;;;;;;5022405;28;20025;-69
2024/02/15 14:37:19;;;;;;;15.77;7.95;;;;;;;;;;5034942;28;20506;-70
2024/02/15 14:40:06;;;;;;;18.67;8.70;;;;;;;;;;5034171;28;20030;-69
2024/02/15 14:42:53;;;;;;;17.20;7.32;;;;;;;;;;5033524;28;20033;-69
2024/02/15 14:45:42;;;;;;;15.48;6.90;;;;;;;;;;5034471;28;20045;-69
2024/02/15 14:48:30;;;;;;;16.60;7.45;;;;;;;;;;5034149;28;20021;-70
2024/02/15 14:51:19;;;;;;;18.08;7.03;;;;;;;;;;5033927;28;20112;-69
2024/02/15 14:54:05;;;;;;;15.25;7.40;;;;;;;;;;5035000;28;20025;-69
2024/02/15 14:56:50;;;;;;;14.20;6.53;;;;;;;;;;5035518;28;20117;-69
2024/02/15 14:59:38;;;;;;;15.63;7.35;;;;;;;;;;5034121;28;20482;-69
2024/02/15 15:02:24;;;;;;;15.35;7.80;;;;;;;;;;5034032;28;20053;-69
2024/02/15 15:14:21;;;;;;;18.83;9.75;;;;;;;;;;5033645;28;20025;-69
2024/02/15 15:17:07;;;;;;;33.15;11.73;;;;;;;;;;5032952;28;20059;-69
2024/02/15 15:19:53;;;;;;;31.00;12.32;;;;;;;;;;5034488;28;20466;-69
2024/02/15 15:22:38;;;;;;;28.08;12.77;;;;;;;;;;5033845;28;20033;-72
2024/02/15 15:25:26;;;;;;;30.40;13.30;;;;;;;;;;5033388;28;20024;-72
2024/02/15 15:28:13;;;;;;;25.42;11.65;;;;;;;;;;5034098;28;20025;-72
2024/02/15 15:30:59;;;;;;;34.85;12.95;;;;;;;;;;5033575;28;20494;-71
2024/02/15 15:33:45;;;;;;;33.65;12.82;;;;;;;;;;5033885;28;20064;-72
2024/02/15 15:36:30;;;;;;;31.73;12.60;;;;;;;;;;5033861;28;20033;-72
2024/02/15 15:39:16;;;;;;;32.20;13.10;;;;;;;;;;5033994;28;20087;-70
2024/02/15 15:42:03;;;;;;;35.00;11.93;;;;;;;;;;5034170;28;20033;-69
2024/02/15 15:44:49;;;;;;;31.70;12.90;;;;;;;;;;5017410;28;20490;-69
2024/02/15 15:47:36;;;;;;;33.63;14.05;;;;;;;;;;5033747;28;20026;-69
2024/02/15 15:50:21;;;;;;;28.30;10.48;;;;;;;;;;5029601;28;20029;-69
2024/02/15 15:53:08;;;;;;;34.85;13.27;;;;;;;;;;5031506;28;20553;-69
2024/02/15 15:55:53;;;;;;;26.85;12.25;;;;;;;;;;5032619;28;20025;-69
2024/02/15 15:58:41;;;;;;;29.08;13.25;;;;;;;;;;5031267;28;20620;-69
2024/02/15 16:01:29;;;;;;;30.80;12.02;;;;;;;;;;5033294;28;20033;-69
2024/02/15 16:04:14;;;;;;;29.35;12.63;;;;;;;;;;5033076;28;20044;-69
2024/02/15 16:07:00;;;;;;;34.78;13.52;;;;;;;;;;5032259;28;20033;-70
2024/02/15 16:09:46;;;;;;;28.33;10.85;;;;;;;;;;5033598;28;20025;-69
2024/02/15 16:12:34;;;;;;;27.63;11.45;;;;;;;;;;5032594;28;20029;-69
2024/02/15 16:15:20;;;;;;;28.27;12.25;;;;;;;;;;5033009;28;20376;-69
2024/02/15 16:18:06;;;;;;;27.05;11.43;;;;;;;;;;5033588;28;20044;-69
2024/02/15 16:20:51;;;;;;;29.10;11.25;;;;;;;;;;5033474;28;20319;-69
2024/02/15 16:23:37;;;;;;;26.58;11.52;;;;;;;;;;5069721;23;20052;-71
2024/02/15 16:26:23;;;;;;;28.40;12.20;;;;;;;;;;5073769;28;20027;-72
2024/02/15 16:29:09;;;;;;;26.63;11.68;;;;;;;;;;5059390;28;20052;-71
2024/02/15 16:31:55;;;;;;;26.60;10.75;;;;;;;;;;5073189;28;20103;-71
2024/02/15 16:34:40;;;;;;;23.75;11.82;;;;;;;;;;5053890;28;20086;-72
2024/02/15 16:37:26;;;;;;;27.35;12.07;;;;;;;;;;5053496;28;20021;-72
2024/02/15 16:40:17;;;;;;;23.70;11.45;;;;;;;;;;5053486;28;20040;-71
2024/02/15 16:43:04;;;;;;;32.92;13.23;;;;;;;;;;5038749;28;20127;-71
2024/02/15 16:45:50;;;;;;;34.80;12.95;;;;;;;;;;5053704;28;20031;-71
2024/02/15 16:48:35;;;;;;;30.40;12.50;;;;;;;;;;5054145;28;20036;-71
2024/02/15 16:51:26;;;;;;;30.90;12.45;;;;;;;;;;5053867;28;20024;-71
2024/02/15 16:54:12;;;;;;;28.48;13.50;;;;;;;;;;5039450;28;20029;-71
2024/02/15 16:56:58;;;;;;;29.27;11.40;;;;;;;;;;5052608;28;20032;-71
2024/02/15 16:59:43;;;;;;;29.10;11.98;;;;;;;;;;5053942;28;20025;-71
2024/02/15 17:02:31;;;;;;;34.08;13.65;;;;;;;;;;5052700;28;20036;-71
2024/02/15 17:05:17;;;;;;;29.77;12.27;;;;;;;;;;5053121;28;20103;-71